Honaunau, HI

6:59 PM HST on May 06, 2015 (GMT -1000)
Kona International At Keahole | | Change Station
CLOSE
Current Station
Airport
Location: Keahole Point,
Elevation: 43 ft
Nearby Weather Stations
Active Advisory: High Surf Advisory

Elev 43 ft 19.74 °N, 156.05 °W | Updated 6 minutes ago

Overcast
Overcast
80 °F
Feels Like 82 °F
N
13
Wind Variable Wind from SE

Today
High -- | Low -- °F
--% Chance of Precip.
Yesterday
High -- | Low -- °F
Precip. -- in
5:52 AM 6:48 PM
Waning Gibbous, 90% visible
Pressure 29.94 in
Visibility 10.0 miles
Clouds Mostly Cloudy 4900 ft
Overcast 7500 ft
Heat Index 82 °F
Dew Point 63 °F
Humidity 56%
Rainfall 0.00 in
Snow Depth Not available.
UV 0 out of 12
Pollen Not available.
Air Quality Not available.
Flu Activity Regional
METAR PHKO 070453Z 14011KT 10SM BKN049 OVC075 27/17 A2994 RMK AO2 SLP137 T02670172

More Conditions Fewer Conditions

Pressure 29.94 in
Visibility 10.0 miles
Clouds Mostly Cloudy 4900 ft
Overcast 7500 ft
Heat Index 82 °F
Dew Point 63 °F
Humidity 56%
Rainfall 0.00 in
Snow Depth Not available.
UV 0 out of 12
Pollen Not available.
Air Quality Not available.
Flu Activity Regional
METAR PHKO 070453Z 14011KT 10SM BKN049 OVC075 27/17 A2994 RMK AO2 SLP137 T02670172

More Conditions Fewer Conditions

10-Day Weather Forecast

Almanac

Astronomy

May. 06, 2015 Rise Set
Actual Time
Civil Twilight
Nautical Twilight
Astronomical Twilight
Moon
Length of Visible Light
Length of Day
Tomorrow will be .
, % of the Moon is Illuminated

Today's Extremes

State Highs State Lows

Community

WunderPhotos

Upload Photos

1,819,121 photos uploaded!

WunderBlogs® & News

Nearby

Air Quality

  Air Quality AQ Index Pollutant
Not available.

Snow Depth

Station Depth Elevation

Earthquake Activity

City Distance Mag. Time & Date
Minimum magnitude displayed is 2.5.

Coastal Water Temperatures

Place Temperature

Stations

Nearby Weather Stations

Station Location Temp. Windchill Dew Point Humidity Wind Precip. Elev Updated Type
                   
High Surf Advisory
Statement as of 3:40 PM HST on May 06, 2015

... High surf advisory remains in effect until 10 am HST
Thursday...

A high surf advisory remains in effect until 10 am HST Thursday.

* Surf... 5 to 8 feet for south facing shores.

* Timing... peaking tonight... gradually diminishing Thursday and
then remaining steady... but below advisory levels... through the
weekend.

* Impacts... moderate... expect strong breaking waves... shore
break... and strong longshore and rip currents making swimming
difficult and dangerous.

Precautionary/preparedness actions...

Beachgoers... swimmers... and surfers should heed all advice given
by ocean safety officials and exercise caution. If in doubt... do
not go out. Boaters should expect recreational surfers and body
boarders utilizing Harbor channels to access surfing areas.



Birchard